createdAt,value
2023-02-26T00:01:47.291Z,-2.07
2023-02-26T00:04:15.576Z,-2.13
2023-02-26T00:06:54.367Z,-2.13
2023-02-26T00:09:25.311Z,-2.05
2023-02-26T00:11:53.842Z,-2.05
2023-02-26T00:14:23.990Z,-2.01
2023-02-26T00:16:54.640Z,-2.06
2023-02-26T00:19:23.033Z,-2.07
2023-02-26T00:21:51.730Z,-2.03
2023-02-26T00:24:19.858Z,-1.98
2023-02-26T00:26:48.111Z,-1.97
2023-02-26T00:29:17.177Z,-1.99
2023-02-26T00:31:47.366Z,-2.07
2023-02-26T00:34:16.018Z,-2.31
2023-02-26T00:36:46.304Z,-2.23
2023-02-26T00:39:31.107Z,-2.19
2023-02-26T00:41:59.614Z,-2.16
2023-02-26T00:44:28.309Z,-2.11
2023-02-26T00:47:01.132Z,-2.09
2023-02-26T00:49:33.009Z,-2.12
2023-02-26T00:52:03.155Z,-2.10
2023-02-26T00:54:31.823Z,-2.05
2023-02-26T00:57:00.281Z,-1.99
2023-02-26T00:59:28.397Z,-1.96
2023-02-26T01:01:56.621Z,-2.02
2023-02-26T01:04:26.678Z,-2.00
2023-02-26T01:06:56.238Z,-2.06
2023-02-26T01:09:26.795Z,-2.03
2023-02-26T01:11:55.663Z,-2.12
2023-02-26T01:14:24.760Z,-2.12
2023-02-26T01:16:54.969Z,-2.14
2023-02-26T01:19:31.180Z,-2.12
2023-02-26T01:22:04.414Z,-2.14
2023-02-26T01:24:32.743Z,-2.15
2023-02-26T01:27:01.097Z,-2.20
2023-02-26T01:29:29.387Z,-2.16
2023-02-26T01:32:01.101Z,-2.29
2023-02-26T01:34:33.592Z,-2.28
2023-02-26T01:37:05.210Z,-2.23
2023-02-26T01:39:36.786Z,-2.27
2023-02-26T01:42:07.425Z,-2.36
2023-02-26T01:44:37.884Z,-2.33
2023-02-26T01:47:12.078Z,-2.25
2023-02-26T01:49:43.398Z,-2.27
2023-02-26T01:52:44.730Z,-2.32
2023-02-26T01:55:12.849Z,-2.24
2023-02-26T01:57:41.609Z,-2.23
2023-02-26T02:00:11.148Z,-2.20
2023-02-26T02:02:42.246Z,-2.23
2023-02-26T02:05:13.404Z,-2.28
2023-02-26T02:07:41.523Z,-2.34
2023-02-26T02:10:10.592Z,-2.30
2023-02-26T02:12:40.918Z,-2.25
2023-02-26T02:15:11.310Z,-2.29
2023-02-26T02:17:43.006Z,-2.37
2023-02-26T02:20:50.172Z,-2.35
2023-02-26T02:23:18.987Z,-2.30
2023-02-26T02:26:07.965Z,-2.28
2023-02-26T02:28:41.683Z,-2.39
2023-02-26T02:31:13.164Z,-2.39
2023-02-26T02:33:44.985Z,-2.32
2023-02-26T02:36:15.563Z,-2.33
2023-02-26T02:38:46.685Z,-2.38
2023-02-26T02:41:17.120Z,-2.40
2023-02-26T02:43:45.489Z,-2.43
2023-02-26T02:46:19.898Z,-2.53
2023-02-26T02:48:50.089Z,-2.50
2023-02-26T02:51:22.638Z,-2.42
2023-02-26T02:53:51.863Z,-2.48
2023-02-26T02:56:23.686Z,-2.51
2023-02-26T02:58:54.400Z,-2.55
2023-02-26T03:01:24.173Z,-2.49
2023-02-26T03:03:55.790Z,-2.45
2023-02-26T03:06:24.497Z,-2.45
2023-02-26T03:08:52.585Z,-2.49
2023-02-26T03:11:20.971Z,-2.46
2023-02-26T03:13:50.120Z,-2.54
2023-02-26T03:16:33.926Z,-2.49
2023-02-26T03:19:05.858Z,-2.63
2023-02-26T03:21:39.360Z,-2.55
2023-02-26T03:24:13.984Z,-2.54
2023-02-26T03:26:44.030Z,-2.48
2023-02-26T03:29:17.553Z,-2.42
2023-02-26T03:31:51.579Z,-2.40
2023-02-26T03:34:21.180Z,-2.46
2023-02-26T03:36:52.075Z,-2.41
2023-02-26T03:39:25.092Z,-2.48
2023-02-26T03:41:54.734Z,-2.42
2023-02-26T03:44:25.765Z,-2.51
2023-02-26T03:46:57.368Z,-2.47
2023-02-26T03:49:30.078Z,-2.40
2023-02-26T03:51:59.242Z,-2.39
2023-02-26T03:54:52.226Z,-2.46
2023-02-26T03:57:49.809Z,-2.55
2023-02-26T04:00:38.266Z,-2.67
2023-02-26T04:03:09.891Z,-2.63
2023-02-26T04:05:40.700Z,-2.63
2023-02-26T04:08:09.017Z,-2.70
2023-02-26T04:10:39.442Z,-2.62
2023-02-26T04:13:07.689Z,-2.64
2023-02-26T04:15:35.900Z,-2.55
2023-02-26T04:18:04.305Z,-2.51
2023-02-26T04:20:33.883Z,-2.49
2023-02-26T04:23:01.996Z,-2.50
2023-02-26T04:25:30.805Z,-2.52
2023-02-26T04:28:00.458Z,-2.61
2023-02-26T04:30:28.859Z,-2.69
2023-02-26T04:32:57.085Z,-2.69
2023-02-26T04:35:25.170Z,-2.67
2023-02-26T04:37:54.663Z,-2.67
2023-02-26T04:40:23.993Z,-2.62
2023-02-26T04:42:52.220Z,-2.68
2023-02-26T04:45:25.051Z,-2.73
2023-02-26T04:47:53.675Z,-2.73
2023-02-26T04:50:21.848Z,-2.74
2023-02-26T04:52:55.141Z,-2.80
2023-02-26T04:55:23.338Z,-2.79
2023-02-26T04:57:52.184Z,-2.71
2023-02-26T05:00:25.763Z,-2.71
2023-02-26T05:02:53.877Z,-2.68
2023-02-26T05:05:22.011Z,-2.63
2023-02-26T05:07:50.505Z,-2.68
2023-02-26T05:10:20.139Z,-2.72
2023-02-26T05:12:48.517Z,-2.75
2023-02-26T05:15:16.581Z,-2.77
2023-02-26T05:17:45.076Z,-2.79
2023-02-26T05:20:13.553Z,-2.79
2023-02-26T05:22:41.666Z,-2.72
2023-02-26T05:25:12.499Z,-2.74
2023-02-26T05:27:42.459Z,-2.75
2023-02-26T05:30:12.326Z,-2.61
2023-02-26T05:32:40.426Z,-2.59
2023-02-26T05:35:09.113Z,-2.64
2023-02-26T05:37:37.512Z,-2.63
2023-02-26T05:40:06.578Z,-2.64
2023-02-26T05:42:34.676Z,-2.64
2023-02-26T05:45:04.863Z,-2.69
2023-02-26T05:47:33.250Z,-2.75
2023-02-26T05:50:01.317Z,-2.77
2023-02-26T05:52:29.671Z,-2.76
2023-02-26T05:54:57.697Z,-2.70
2023-02-26T05:57:25.864Z,-2.71
2023-02-26T05:59:53.887Z,-2.70
2023-02-26T06:02:23.402Z,-2.73
2023-02-26T06:04:51.413Z,-2.70
2023-02-26T06:07:19.814Z,-2.69
2023-02-26T06:09:47.905Z,-2.64
2023-02-26T06:12:15.970Z,-2.60
2023-02-26T06:14:44.022Z,-2.57
2023-02-26T06:17:12.065Z,-2.66
2023-02-26T06:19:41.844Z,-2.62
2023-02-26T06:22:09.949Z,-2.66
2023-02-26T06:24:38.058Z,-2.62
2023-02-26T06:27:06.236Z,-2.58
2023-02-26T06:29:34.535Z,-2.53
2023-02-26T06:32:02.923Z,-2.59
2023-02-26T06:34:31.077Z,-2.60
2023-02-26T06:37:00.535Z,-2.54
2023-02-26T06:39:28.651Z,-2.55
2023-02-26T06:41:56.723Z,-2.58
2023-02-26T06:44:24.858Z,-2.58
2023-02-26T06:46:52.914Z,-2.54
2023-02-26T06:49:21.095Z,-2.54
2023-02-26T06:51:49.134Z,-2.52
2023-02-26T06:54:18.819Z,-2.48
2023-02-26T06:56:46.902Z,-2.40
2023-02-26T06:59:15.676Z,-2.31
2023-02-26T07:01:44.920Z,-2.32
2023-02-26T07:04:12.953Z,-2.26
2023-02-26T07:06:41.316Z,-2.34
2023-02-26T07:09:09.586Z,-2.32
2023-02-26T07:11:39.096Z,-2.37
2023-02-26T07:14:07.454Z,-2.42
2023-02-26T07:16:35.573Z,-2.36
2023-02-26T07:19:03.660Z,-2.27
2023-02-26T07:21:31.721Z,-2.23
2023-02-26T07:23:59.790Z,-2.22
2023-02-26T07:26:28.303Z,-2.20
2023-02-26T07:28:57.932Z,-2.23
2023-02-26T07:31:26.071Z,-2.18
2023-02-26T07:33:54.234Z,-2.08
2023-02-26T07:36:22.288Z,-2.07
2023-02-26T07:38:50.401Z,-1.94
2023-02-26T07:41:18.758Z,-2.04
2023-02-26T07:43:46.886Z,-1.98
2023-02-26T07:46:16.416Z,-1.95
2023-02-26T07:48:44.583Z,-1.87
2023-02-26T07:51:12.661Z,-1.95
2023-02-26T07:53:40.755Z,-2.04
2023-02-26T07:56:09.895Z,-1.92
2023-02-26T07:58:37.994Z,-1.99
2023-02-26T08:01:07.046Z,-1.99
2023-02-26T08:03:36.622Z,-2.00
2023-02-26T08:06:05.339Z,-1.99
2023-02-26T08:08:34.310Z,-1.88
2023-02-26T08:11:02.372Z,-1.97
2023-02-26T08:13:30.447Z,-1.99
2023-02-26T08:15:58.568Z,-1.90
2023-02-26T08:18:26.656Z,-1.92
2023-02-26T08:20:56.121Z,-1.83
2023-02-26T08:23:24.541Z,-1.77
2023-02-26T08:25:52.632Z,-1.65
2023-02-26T08:28:20.840Z,-1.56
2023-02-26T08:30:48.901Z,-1.57
2023-02-26T08:33:16.993Z,-1.64
2023-02-26T08:35:45.043Z,-1.70
2023-02-26T08:38:14.825Z,-1.69
2023-02-26T08:40:42.879Z,-1.74
2023-02-26T08:43:11.799Z,-1.65
2023-02-26T08:45:39.900Z,-1.47
2023-02-26T08:48:09.862Z,-1.51
2023-02-26T08:50:40.241Z,-1.53
2023-02-26T08:53:08.345Z,-1.59
2023-02-26T08:55:37.786Z,-1.60
2023-02-26T08:58:05.875Z,-1.55
2023-02-26T09:00:33.934Z,-1.54
2023-02-26T09:03:02.386Z,-1.42
2023-02-26T09:05:30.474Z,-1.30
2023-02-26T09:07:58.560Z,-1.29
2023-02-26T09:10:26.585Z,-1.36
2023-02-26T09:12:56.094Z,-1.48
2023-02-26T09:15:24.251Z,-1.61
2023-02-26T09:17:52.863Z,-1.48
2023-02-26T09:20:22.421Z,-1.35
2023-02-26T09:22:50.672Z,-1.42
2023-02-26T09:25:18.891Z,-1.55
2023-02-26T09:27:46.953Z,-1.39
2023-02-26T09:30:17.169Z,-1.17
2023-02-26T09:32:45.281Z,-1.01
2023-02-26T09:35:13.637Z,-0.95
2023-02-26T09:37:41.850Z,-0.96
2023-02-26T09:40:13.137Z,-0.76
2023-02-26T09:42:52.459Z,-0.79
2023-02-26T09:45:26.538Z,-0.87
2023-02-26T09:47:54.736Z,-1.00
2023-02-26T09:50:24.409Z,-0.86
2023-02-26T09:52:54.741Z,-0.86
2023-02-26T09:55:28.176Z,-0.70
2023-02-26T09:57:58.219Z,-0.84
2023-02-26T10:00:31.952Z,-0.74
2023-02-26T10:03:04.367Z,-0.49
2023-02-26T10:05:36.328Z,-0.47
2023-02-26T10:08:06.910Z,-0.53
2023-02-26T10:10:42.590Z,-0.55
2023-02-26T10:13:11.994Z,-0.58
2023-02-26T10:15:42.457Z,-0.64
2023-02-26T10:18:12.086Z,-0.61
2023-02-26T10:20:43.332Z,-0.66
2023-02-26T10:23:17.757Z,-0.78
2023-02-26T10:25:47.894Z,-0.75
2023-02-26T10:28:35.878Z,-0.86
2023-02-26T10:31:07.539Z,-0.79
2023-02-26T10:33:39.296Z,-0.91
2023-02-26T10:36:19.039Z,-0.70
2023-02-26T10:38:49.080Z,-0.35
2023-02-26T10:41:19.440Z,-0.24
2023-02-26T10:43:50.138Z,-0.41
2023-02-26T10:46:26.528Z,-0.44
2023-02-26T10:49:03.724Z,-0.57
2023-02-26T10:51:35.139Z,-0.63
2023-02-26T10:54:05.601Z,-0.62
2023-02-26T10:56:34.369Z,-0.64
2023-02-26T10:59:02.455Z,-0.75
2023-02-26T11:01:32.538Z,-0.77
2023-02-26T11:04:02.580Z,-1.06
2023-02-26T11:06:32.200Z,-1.12
2023-02-26T11:09:00.857Z,-0.96
2023-02-26T11:11:44.193Z,-0.83
2023-02-26T11:14:12.759Z,-0.81
2023-02-26T11:16:49.506Z,-0.70
2023-02-26T11:19:17.665Z,-0.77
2023-02-26T11:21:47.465Z,-0.89
2023-02-26T11:24:19.423Z,-0.78
2023-02-26T11:26:48.853Z,-0.80
2023-02-26T11:29:18.885Z,-0.77
2023-02-26T11:31:51.886Z,-0.86
2023-02-26T11:34:23.437Z,-0.93
2023-02-26T11:36:51.940Z,-0.92
2023-02-26T11:39:20.813Z,-1.02
2023-02-26T11:41:49.862Z,-0.83
2023-02-26T11:44:21.195Z,-0.68
2023-02-26T11:46:52.854Z,-0.84
2023-02-26T11:49:23.111Z,-0.79
2023-02-26T11:52:05.718Z,-0.72
2023-02-26T11:54:35.670Z,-0.62
2023-02-26T11:57:06.131Z,-0.62
2023-02-26T11:59:34.320Z,-0.63
2023-02-26T12:02:07.281Z,-0.70
2023-02-26T12:04:35.382Z,-0.82
2023-02-26T12:07:03.515Z,-0.92
2023-02-26T12:09:31.591Z,-0.87
2023-02-26T12:12:10.319Z,-0.88
2023-02-26T12:14:51.139Z,-0.76
2023-02-26T12:17:38.417Z,-0.73
2023-02-26T12:20:17.336Z,-0.73
2023-02-26T12:22:55.093Z,-0.96
2023-02-26T12:25:29.162Z,-0.90
2023-02-26T12:28:10.154Z,-0.99
2023-02-26T12:30:49.558Z,-0.98
2023-02-26T12:33:26.150Z,-1.01
2023-02-26T12:36:03.670Z,-0.87
2023-02-26T12:38:34.884Z,-0.76
2023-02-26T12:41:26.881Z,-0.86
2023-02-26T12:43:56.175Z,-0.81
2023-02-26T12:46:48.862Z,-0.84
2023-02-26T12:49:44.778Z,-0.64
2023-02-26T12:52:35.625Z,-0.57
2023-02-26T12:55:12.334Z,-0.32
2023-02-26T12:57:51.884Z,-0.19
2023-02-26T13:00:30.012Z,-0.16
2023-02-26T13:03:14.203Z,-0.01
2023-02-26T13:06:00.827Z,0.05
2023-02-26T13:08:33.418Z,-0.09
2023-02-26T13:11:09.021Z,-0.32
2023-02-26T13:13:54.646Z,-0.18
2023-02-26T13:16:30.315Z,-0.23
2023-02-26T13:19:02.327Z,-0.02
2023-02-26T13:21:33.652Z,-0.02
2023-02-26T13:24:05.215Z,-0.31
2023-02-26T13:26:33.374Z,-0.25
2023-02-26T13:29:03.358Z,-0.03
2023-02-26T13:31:33.320Z,0.09
2023-02-26T13:34:06.188Z,-0.10
2023-02-26T13:36:35.661Z,-0.17
2023-02-26T13:39:28.745Z,-0.19
2023-02-26T13:42:00.336Z,-0.24
2023-02-26T13:44:33.599Z,-0.43
2023-02-26T13:47:27.470Z,-0.44
2023-02-26T13:50:01.208Z,-0.42
2023-02-26T13:52:31.879Z,-0.35
2023-02-26T13:55:00.148Z,-0.14
2023-02-26T13:57:37.239Z,0.18
2023-02-26T14:00:12.934Z,0.18
2023-02-26T14:02:52.861Z,0.54
2023-02-26T14:06:01.950Z,0.63
2023-02-26T14:08:45.002Z,0.22
2023-02-26T14:11:44.473Z,-0.10
2023-02-26T14:14:21.369Z,-0.14
2023-02-26T14:16:51.712Z,-0.45
2023-02-26T14:19:24.138Z,-0.43
2023-02-26T14:21:52.910Z,-0.43
2023-02-26T14:24:24.290Z,-0.59
2023-02-26T14:27:05.914Z,-0.66
2023-02-26T14:29:40.677Z,-0.67
2023-02-26T14:32:16.814Z,-0.59
2023-02-26T14:34:50.372Z,-0.32
2023-02-26T14:37:21.516Z,-0.29
2023-02-26T14:39:53.317Z,-0.19
2023-02-26T14:42:23.651Z,-0.36
2023-02-26T14:44:53.662Z,-0.49
2023-02-26T14:47:21.745Z,-0.69
2023-02-26T14:49:49.995Z,-0.69
2023-02-26T14:52:35.984Z,-0.59
2023-02-26T14:55:31.344Z,-0.59
2023-02-26T14:58:07.790Z,-0.71
2023-02-26T15:00:40.786Z,-0.83
2023-02-26T15:03:25.516Z,-0.99
2023-02-26T15:06:00.093Z,-1.14
2023-02-26T15:08:40.448Z,-1.15
2023-02-26T15:11:32.219Z,-1.27
2023-02-26T15:14:25.462Z,-1.28
2023-02-26T15:16:58.342Z,-1.20
2023-02-26T15:19:40.303Z,-1.22
2023-02-26T15:22:18.124Z,-1.14
2023-02-26T15:24:46.246Z,-1.20
2023-02-26T15:27:17.632Z,-1.21
2023-02-26T15:29:45.761Z,-1.15
2023-02-26T15:32:17.020Z,-1.16
2023-02-26T15:34:47.703Z,-1.16
2023-02-26T15:37:23.760Z,-1.13
2023-02-26T15:39:52.266Z,-1.20
2023-02-26T15:42:23.857Z,-1.37
2023-02-26T15:44:57.120Z,-1.42
2023-02-26T15:47:25.421Z,-1.32
2023-02-26T15:49:54.530Z,-1.45
2023-02-26T15:52:24.036Z,-1.45
2023-02-26T15:54:53.516Z,-1.45
2023-02-26T15:57:24.040Z,-1.43
2023-02-26T15:59:53.821Z,-1.51
2023-02-26T16:02:23.819Z,-1.47
2023-02-26T16:04:53.131Z,-1.42
2023-02-26T16:07:21.614Z,-1.46
2023-02-26T16:09:51.460Z,-1.41
2023-02-26T16:12:20.918Z,-1.46
2023-02-26T16:14:52.028Z,-1.55
2023-02-26T16:17:24.845Z,-1.60
2023-02-26T16:19:53.294Z,-1.68
2023-02-26T16:22:22.549Z,-1.77
2023-02-26T16:24:53.720Z,-1.79
2023-02-26T16:27:21.761Z,-1.80
2023-02-26T16:29:52.216Z,-1.93
2023-02-26T16:32:20.704Z,-1.90
2023-02-26T16:34:51.597Z,-1.93
2023-02-26T16:37:24.938Z,-1.94
2023-02-26T16:39:55.262Z,-1.98
2023-02-26T16:42:24.460Z,-1.97
2023-02-26T16:44:59.277Z,-1.94
2023-02-26T16:47:27.475Z,-2.02
2023-02-26T16:49:55.564Z,-2.13
2023-02-26T16:52:25.812Z,-2.10
2023-02-26T16:54:59.985Z,-2.16
2023-02-26T16:57:33.432Z,-2.14
2023-02-26T17:00:09.576Z,-2.14
2023-02-26T17:02:38.194Z,-2.18
2023-02-26T17:05:11.532Z,-2.22
2023-02-26T17:07:48.091Z,-2.32
2023-02-26T17:10:20.703Z,-2.33
2023-02-26T17:12:50.374Z,-2.39
2023-02-26T17:15:21.667Z,-2.36
2023-02-26T17:17:49.819Z,-2.42
2023-02-26T17:20:18.471Z,-2.50
2023-02-26T17:22:46.607Z,-2.57
2023-02-26T17:25:16.610Z,-2.55
2023-02-26T17:27:45.027Z,-2.64
2023-02-26T17:30:16.078Z,-2.70
2023-02-26T17:32:45.706Z,-2.72
2023-02-26T17:35:14.337Z,-2.73
2023-02-26T17:37:42.499Z,-2.78
2023-02-26T17:40:19.539Z,-2.76
2023-02-26T17:42:47.854Z,-2.82
2023-02-26T17:45:16.790Z,-2.85
2023-02-26T17:47:47.502Z,-2.90
2023-02-26T17:50:30.511Z,-2.86
2023-02-26T17:52:58.737Z,-2.80
2023-02-26T17:55:27.077Z,-2.79
2023-02-26T17:57:55.557Z,-2.78
2023-02-26T18:00:24.020Z,-2.76
2023-02-26T18:02:53.501Z,-2.77
2023-02-26T18:05:21.637Z,-2.83
2023-02-26T18:07:49.867Z,-2.83
2023-02-26T18:10:20.812Z,-2.81
2023-02-26T18:12:49.219Z,-2.79
2023-02-26T18:15:17.599Z,-2.74
2023-02-26T18:17:45.668Z,-2.70
2023-02-26T18:20:20.080Z,-2.69
2023-02-26T18:22:48.992Z,-2.70
2023-02-26T18:25:17.339Z,-2.71
2023-02-26T18:27:45.632Z,-2.71
2023-02-26T18:30:27.597Z,-2.69
2023-02-26T18:32:55.765Z,-2.72
2023-02-26T18:35:26.221Z,-2.72
2023-02-26T18:37:54.704Z,-2.72
2023-02-26T18:40:23.829Z,-2.69
2023-02-26T18:42:52.020Z,-2.67
2023-02-26T18:45:20.142Z,-2.64
2023-02-26T18:47:48.318Z,-2.62
2023-02-26T18:50:17.531Z,-2.61
2023-02-26T18:52:46.993Z,-2.56
2023-02-26T18:55:15.079Z,-2.59
2023-02-26T18:57:43.327Z,-2.59
2023-02-26T19:00:13.947Z,-2.61
2023-02-26T19:02:42.441Z,-2.68
2023-02-26T19:05:11.367Z,-2.75
2023-02-26T19:07:39.538Z,-2.77
2023-02-26T19:10:11.045Z,-2.80
2023-02-26T19:12:39.119Z,-2.85
2023-02-26T19:15:08.431Z,-2.85
2023-02-26T19:17:36.551Z,-2.87
2023-02-26T19:20:05.200Z,-2.98
2023-02-26T19:22:33.338Z,-2.94
2023-02-26T19:25:01.455Z,-2.95
2023-02-26T19:27:30.905Z,-3.00
2023-02-26T19:29:58.989Z,-2.96
2023-02-26T19:32:28.609Z,-2.99
2023-02-26T19:34:56.943Z,-2.94
2023-02-26T19:37:25.019Z,-2.91
2023-02-26T19:39:53.104Z,-2.88
2023-02-26T19:42:21.376Z,-2.80
2023-02-26T19:44:50.914Z,-2.75
2023-02-26T19:47:19.275Z,-2.72
2023-02-26T19:49:47.459Z,-2.67
2023-02-26T19:52:15.534Z,-2.66
2023-02-26T19:54:43.621Z,-2.66
2023-02-26T19:57:11.717Z,-2.64
2023-02-26T19:59:40.137Z,-2.66
2023-02-26T20:02:10.246Z,-2.67
2023-02-26T20:04:38.575Z,-2.70
2023-02-26T20:07:06.949Z,-2.77
2023-02-26T20:09:35.122Z,-2.82
2023-02-26T20:12:03.238Z,-2.81
2023-02-26T20:14:31.725Z,-2.80
2023-02-26T20:16:59.827Z,-2.71
2023-02-26T20:19:29.408Z,-2.66
2023-02-26T20:21:57.843Z,-2.66
2023-02-26T20:24:26.466Z,-2.66
2023-02-26T20:26:54.668Z,-2.66
2023-02-26T20:29:23.616Z,-2.66
2023-02-26T20:31:51.914Z,-2.67
2023-02-26T20:34:20.905Z,-2.62
2023-02-26T20:36:50.836Z,-2.64
2023-02-26T20:39:19.468Z,-2.59
2023-02-26T20:41:47.932Z,-2.58
2023-02-26T20:44:16.000Z,-2.64
2023-02-26T20:46:44.244Z,-2.64
2023-02-26T20:49:14.902Z,-2.62
2023-02-26T20:51:43.248Z,-2.63
2023-02-26T20:54:14.747Z,-2.64
2023-02-26T20:56:42.856Z,-2.61
2023-02-26T20:59:11.048Z,-2.59
2023-02-26T21:01:39.209Z,-2.57
2023-02-26T21:04:08.438Z,-2.56
2023-02-26T21:06:36.642Z,-2.58
2023-02-26T21:09:05.302Z,-2.55
2023-02-26T21:11:36.954Z,-2.53
2023-02-26T21:14:05.828Z,-2.51
2023-02-26T21:16:34.045Z,-2.48
2023-02-26T21:19:02.168Z,-2.46
2023-02-26T21:21:31.050Z,-2.44
2023-02-26T21:23:59.449Z,-2.47
2023-02-26T21:26:28.046Z,-2.49
2023-02-26T21:28:57.656Z,-2.49
2023-02-26T21:31:26.219Z,-2.51
2023-02-26T21:33:54.474Z,-2.55
2023-02-26T21:36:22.881Z,-2.55
2023-02-26T21:38:50.993Z,-2.55
2023-02-26T21:41:20.436Z,-2.55
2023-02-26T21:43:48.896Z,-2.58
2023-02-26T21:46:18.870Z,-2.55
2023-02-26T21:48:50.421Z,-2.59
2023-02-26T21:51:21.386Z,-2.62
2023-02-26T21:53:49.921Z,-2.60
2023-02-26T21:56:19.286Z,-2.57
2023-02-26T21:58:47.681Z,-2.62
2023-02-26T22:01:16.205Z,-2.60
2023-02-26T22:03:45.932Z,-2.65
2023-02-26T22:06:14.065Z,-2.68
2023-02-26T22:08:42.187Z,-2.78
2023-02-26T22:11:10.335Z,-2.87
2023-02-26T22:13:38.499Z,-2.94
2023-02-26T22:16:07.388Z,-3.05
2023-02-26T22:18:35.474Z,-3.11
2023-02-26T22:21:05.323Z,-3.21
2023-02-26T22:23:33.461Z,-3.28
2023-02-26T22:26:01.600Z,-3.35
2023-02-26T22:28:29.777Z,-3.44
2023-02-26T22:30:58.371Z,-3.52
2023-02-26T22:33:26.743Z,-3.58
2023-02-26T22:35:57.014Z,-3.64
2023-02-26T22:38:26.498Z,-3.69
2023-02-26T22:40:54.623Z,-3.80
2023-02-26T22:43:23.054Z,-3.89
2023-02-26T22:45:51.228Z,-3.99
2023-02-26T22:48:19.877Z,-4.08
2023-02-26T22:50:48.044Z,-4.20
2023-02-26T22:53:16.128Z,-4.23
2023-02-26T22:55:45.662Z,-4.26
2023-02-26T22:58:14.348Z,-4.29
2023-02-26T23:00:42.429Z,-4.32
2023-02-26T23:03:10.521Z,-4.38
2023-02-26T23:05:38.585Z,-4.49
2023-02-26T23:08:06.660Z,-4.58
2023-02-26T23:10:35.078Z,-4.65
2023-02-26T23:13:04.573Z,-4.70
2023-02-26T23:15:32.771Z,-4.76
2023-02-26T23:18:00.863Z,-4.81
2023-02-26T23:20:28.916Z,-4.83
2023-02-26T23:22:56.958Z,-4.90
2023-02-26T23:25:26.636Z,-4.97
2023-02-26T23:27:54.725Z,-5.03
2023-02-26T23:30:24.208Z,-5.10
2023-02-26T23:32:52.278Z,-5.16
2023-02-26T23:35:20.541Z,-5.19
2023-02-26T23:37:48.660Z,-5.29
2023-02-26T23:40:17.067Z,-5.37
2023-02-26T23:42:45.343Z,-5.50
2023-02-26T23:45:13.501Z,-5.62
2023-02-26T23:47:42.953Z,-5.70
2023-02-26T23:50:12.347Z,-5.74
2023-02-26T23:52:40.722Z,-5.85
2023-02-26T23:55:09.880Z,-5.90
2023-02-26T23:57:37.932Z,-5.93
